Time;durP1;ratioP1;P1;durP2;ratioP2;P2;SDS_P1;SDS_P2;PMS_P1;PMS_P2;Temp;Humidity;BMP_temperature;BMP_pressure;BME280_temperature;BME280_humidity;BME280_pressure;Samples;Min_cycle;Max_cycle;Signal;HPM_P1;HPM_P2
2022/10/28 00:00:30;;;;;;;21.65;13.45;;;;;;;11.76;87.75;99695.55;1735198;82;25652;-64
2022/10/28 00:03:00;;;;;;;26.23;14.75;;;;;;;11.79;87.96;99700.99;1735139;82;25579;-64
2022/10/28 00:05:27;;;;;;;24.80;14.23;;;;;;;11.81;87.78;99700.15;1734363;82;25724;-64
2022/10/28 00:07:53;;;;;;;23.62;15.60;;;;;;;11.81;87.68;99697.41;1735139;82;27615;-64
2022/10/28 00:10:20;;;;;;;24.50;15.25;;;;;;;11.83;87.65;99692.98;1734777;82;25496;-64
2022/10/28 00:12:46;;;;;;;26.02;13.43;;;;;;;11.84;87.62;99700.93;1735200;82;25460;-64
2022/10/28 00:15:12;;;;;;;23.85;13.20;;;;;;;11.82;87.81;99697.66;1734753;82;25757;-64
2022/10/28 00:17:38;;;;;;;26.00;15.13;;;;;;;11.77;87.75;99685.36;1734872;82;25614;-64
2022/10/28 00:20:07;;;;;;;20.12;13.03;;;;;;;11.73;87.80;99689.81;1735227;82;27445;-64
2022/10/28 00:22:33;;;;;;;25.27;15.40;;;;;;;11.66;88.16;99686.88;1735043;82;25737;-64
2022/10/28 00:24:59;;;;;;;22.65;14.47;;;;;;;11.63;88.03;99694.91;1731032;82;25785;-64
2022/10/28 00:27:25;;;;;;;31.23;16.90;;;;;;;11.57;88.45;99692.77;1735179;82;25795;-64
2022/10/28 00:29:51;;;;;;;29.60;16.70;;;;;;;11.56;88.74;99684.28;1734721;82;25417;-64
2022/10/28 00:32:17;;;;;;;28.73;16.02;;;;;;;11.58;88.77;99679.32;1735292;82;27457;-64
2022/10/28 00:34:43;;;;;;;23.75;14.78;;;;;;;11.58;88.59;99676.58;1734871;82;25908;-64
2022/10/28 00:37:09;;;;;;;23.07;14.53;;;;;;;11.59;88.52;99673.25;1735191;82;25487;-64
2022/10/28 00:39:35;;;;;;;19.62;13.08;;;;;;;11.60;88.43;99670.79;1738851;82;25751;-64
2022/10/28 00:42:06;;;;;;;22.05;12.13;;;;;;;11.62;88.10;99669.38;1730078;82;25605;-64
2022/10/28 00:45:00;;;;;;;18.90;13.13;;;;;;;11.65;88.67;99662.46;1730057;83;27575;-63
2022/10/28 00:47:54;;;;;;;18.15;12.78;;;;;;;11.67;88.06;99665.20;1729532;82;25648;-64
2022/10/28 00:50:50;;;;;;;21.87;13.22;;;;;;;11.65;88.02;99656.42;1729930;83;25518;-63
2022/10/28 00:53:21;;;;;;;22.35;14.15;;;;;;;11.66;87.95;99651.19;1729818;83;25455;-63
2022/10/28 00:55:48;;;;;;;26.45;14.47;;;;;;;11.64;87.72;99658.09;1730198;83;25667;-63
2022/10/28 00:58:17;;;;;;;24.98;15.65;;;;;;;11.59;87.40;99652.66;1729671;82;27335;-64
2022/10/28 01:00:43;;;;;;;23.00;14.70;;;;;;;11.52;87.25;99654.42;1729758;83;25794;-64
2022/10/28 01:03:09;;;;;;;25.35;15.90;;;;;;;11.44;87.21;99654.52;1729929;82;25435;-64
2022/10/28 01:05:40;;;;;;;24.15;14.73;;;;;;;11.35;87.26;99648.05;1729838;82;25925;-64
2022/10/28 01:08:06;;;;;;;;;;;;;;;11.25;87.25;99643.50;1732598;82;25606;-63
2022/10/28 01:11:04;;;;;;;26.57;15.05;;;;;;;11.12;87.58;99637.64;1729909;82;27648;-63
2022/10/28 01:13:50;;;;;;;25.27;15.75;;;;;;;10.99;87.64;99638.33;1729521;83;25422;-63
2022/10/28 01:16:21;;;;;;;26.27;16.17;;;;;;;10.87;87.97;99638.20;1729698;82;25610;-63
2022/10/28 01:19:22;;;;;;;29.45;17.73;;;;;;;10.84;87.99;99639.32;1729088;82;25755;-63
2022/10/28 01:22:02;;;;;;;23.52;15.93;;;;;;;10.78;87.83;99642.14;1729843;83;25706;-63
2022/10/28 01:24:36;;;;;;;29.72;16.90;;;;;;;10.76;87.89;99643.52;1730328;82;27445;-63
2022/10/28 01:27:31;;;;;;;27.35;16.55;;;;;;;10.71;87.93;99636.16;1729881;82;25543;-63
2022/10/28 01:30:10;;;;;;;28.23;16.73;;;;;;;10.71;88.06;99637.53;1730295;82;25622;-63
2022/10/28 01:33:02;;;;;;;29.18;17.85;;;;;;;10.72;88.00;99636.44;1709093;83;25782;-63
2022/10/28 01:35:45;;;;;;;28.70;16.57;;;;;;;10.71;87.94;99638.10;1729875;83;25476;-63
2022/10/28 01:38:19;;;;;;;27.45;16.77;;;;;;;10.68;88.06;99627.72;1728856;82;27562;-63
2022/10/28 01:41:00;;;;;;;26.42;16.17;;;;;;;10.65;88.01;99632.66;1729538;83;25626;-63
2022/10/28 01:43:32;;;;;;;25.60;15.68;;;;;;;10.65;88.33;99638.14;1729667;82;31031;-63
2022/10/28 01:46:05;;;;;;;28.07;15.48;;;;;;;10.65;88.31;99628.55;1729910;82;25741;-63
2022/10/28 01:48:48;;;;;;;25.20;15.43;;;;;;;10.63;88.25;99623.93;1729873;82;25647;-63
2022/10/28 01:51:25;;;;;;;24.52;15.63;;;;;;;10.64;88.24;99622.81;1730141;83;27523;-63
2022/10/28 01:53:55;;;;;;;23.55;14.80;;;;;;;10.65;88.58;99631.87;1729159;82;26102;-63
2022/10/28 01:56:26;;;;;;;22.62;14.78;;;;;;;10.61;88.67;99631.62;1709036;83;26026;-64
2022/10/28 01:58:56;;;;;;;22.27;14.63;;;;;;;10.57;88.85;99628.37;1730011;82;25743;-63
2022/10/28 02:01:24;;;;;;;26.40;15.47;;;;;;;10.53;88.83;99617.16;1729796;83;25439;-63
2022/10/28 02:03:51;;;;;;;24.60;15.93;;;;;;;10.49;88.83;99618.31;1729873;82;27612;-63
2022/10/28 02:06:21;;;;;;;23.87;15.23;;;;;;;10.47;88.81;99622.42;1729511;83;27262;-63
2022/10/28 02:09:18;;;;;;;24.70;15.30;;;;;;;10.44;88.65;99623.80;1729845;83;25626;-64
2022/10/28 02:11:58;;;;;;;22.85;15.18;;;;;;;10.45;88.55;99626.80;1725990;83;26411;-63
2022/10/28 02:14:57;;;;;;;23.22;14.43;;;;;;;10.44;88.45;99619.69;1729663;83;25419;-63
2022/10/28 02:17:51;;;;;;;26.02;15.00;;;;;;;10.43;88.55;99619.44;1729341;82;27446;-63
2022/10/28 02:21:07;;;;;;;23.25;14.10;;;;;;;10.38;88.32;99616.19;1729759;83;25652;-63
2022/10/28 02:23:43;;;;;;;21.17;14.58;;;;;;;10.37;88.63;99621.41;1729877;82;25642;-63
2022/10/28 02:26:27;;;;;;;22.05;14.00;;;;;;;10.34;88.87;99613.77;1729798;82;25680;-63
2022/10/28 02:29:08;;;;;;;23.87;13.00;;;;;;;10.36;88.84;99624.44;1728552;82;25630;-63
2022/10/28 02:31:42;;;;;;;23.32;12.98;;;;;;;10.35;88.73;99618.14;1604323;88;30069;-63
2022/10/28 02:34:16;;;;;;;21.75;14.23;;;;;;;10.33;88.97;99605.27;1604406;88;25653;-63
2022/10/28 02:36:48;;;;;;;20.17;13.25;;;;;;;10.33;89.01;99607.21;1603679;89;25879;-63
2022/10/28 02:39:18;;;;;;;20.80;13.38;;;;;;;10.35;88.76;99605.80;1609912;88;26490;-63
2022/10/28 02:42:00;;;;;;;22.10;14.10;;;;;;;10.35;88.48;99605.80;1617902;88;25840;-63
2022/10/28 02:44:30;;;;;;;22.90;14.75;;;;;;;10.37;87.93;99601.41;1617795;88;27374;-63
2022/10/28 02:47:01;;;;;;;23.50;16.10;;;;;;;10.24;86.74;99596.03;1618040;88;25527;-63
2022/10/28 02:49:30;;;;;;;23.02;15.55;;;;;;;10.06;85.29;99592.92;1617860;88;28589;-63
2022/10/28 02:52:03;;;;;;;27.22;15.08;;;;;;;9.89;86.31;99590.05;1617697;88;25694;-63
2022/10/28 02:54:40;;;;;;;31.57;17.82;;;;;;;9.84;87.51;99586.55;1617914;88;25701;-63
2022/10/28 02:57:20;;;;;;;28.27;17.80;;;;;;;9.72;85.85;99590.98;1596416;88;27400;-63
2022/10/28 02:59:59;;;;;;;29.30;19.25;;;;;;;9.42;85.17;99596.39;1617440;88;25522;-63
2022/10/28 03:02:26;;;;;;;26.57;17.35;;;;;;;9.25;85.68;99599.49;1616944;88;25591;-63
2022/10/28 03:04:53;;;;;;;27.82;18.75;;;;;;;9.20;85.62;99596.77;1617774;88;25943;-63
2022/10/28 03:07:34;;;;;;;19.98;13.83;;;;;;;9.22;85.85;99598.69;1625339;82;25737;-63
2022/10/28 03:10:08;;;;;;;21.52;13.05;;;;;;;9.22;86.74;99594.05;1736424;82;33126;-63
2022/10/28 03:12:35;;;;;;;20.45;13.20;;;;;;;9.31;88.31;99584.69;1735043;82;25423;-63
2022/10/28 03:15:02;;;;;;;24.85;13.95;;;;;;;9.35;89.48;99582.19;1735263;82;25448;-63
2022/10/28 03:17:28;;;;;;;21.35;13.55;;;;;;;9.39;89.51;99584.66;1734855;82;25728;-63
2022/10/28 03:19:54;;;;;;;20.45;12.80;;;;;;;9.39;88.97;99586.02;1735185;82;25696;-63
2022/10/28 03:22:20;;;;;;;20.97;13.15;;;;;;;9.40;88.78;99585.73;1735311;82;27001;-63
2022/10/28 03:24:47;;;;;;;20.85;13.10;;;;;;;9.43;88.78;99582.97;1734833;82;25480;-63
2022/10/28 03:27:13;;;;;;;19.73;12.65;;;;;;;9.46;88.74;99577.48;1734854;82;25613;-63
2022/10/28 03:29:39;;;;;;;20.90;12.70;;;;;;;9.50;89.49;99571.16;1735367;82;25885;-63
2022/10/28 03:32:05;;;;;;;21.07;12.93;;;;;;;9.57;90.32;99565.92;1735243;82;25723;-63
2022/10/28 03:34:31;;;;;;;21.60;12.85;;;;;;;9.62;90.79;99562.59;1734831;82;29609;-63
2022/10/28 03:36:57;;;;;;;19.90;12.58;;;;;;;9.70;91.45;99570.74;1734768;82;25621;-63
2022/10/28 03:39:24;;;;;;;22.20;12.05;;;;;;;9.76;91.23;99574.28;1734351;82;25580;-64
2022/10/28 03:41:50;;;;;;;21.45;13.58;;;;;;;9.81;91.99;99574.80;1732711;82;25768;-63
2022/10/28 03:44:16;;;;;;;20.60;12.80;;;;;;;9.85;91.13;99574.48;1732725;82;25441;-63
2022/10/28 03:46:43;;;;;;;21.68;12.80;;;;;;;9.88;90.93;99571.97;1732413;82;27448;-63
2022/10/28 03:49:09;;;;;;;21.23;11.70;;;;;;;9.94;91.50;99571.39;1732390;82;25617;-63
2022/10/28 03:51:36;;;;;;;17.95;11.08;;;;;;;9.99;91.77;99569.96;1732885;82;25669;-63
2022/10/28 03:54:02;;;;;;;17.23;10.72;;;;;;;10.05;92.09;99573.50;1729017;82;26888;-63
2022/10/28 03:56:28;;;;;;;18.92;11.68;;;;;;;10.10;92.73;99570.69;1693785;84;25583;-63
2022/10/28 03:58:54;;;;;;;19.42;11.45;;;;;;;10.16;93.04;99572.28;1693543;84;29527;-63
2022/10/28 04:01:21;;;;;;;17.57;10.72;;;;;;;10.23;92.08;99573.33;1699105;83;25725;-63
2022/10/28 04:03:48;;;;;;;19.37;11.78;;;;;;;10.27;91.47;99570.80;1713010;83;25682;-63
2022/10/28 04:06:15;;;;;;;16.45;10.60;;;;;;;10.29;91.09;99573.54;1716200;83;26840;-63
2022/10/28 04:08:42;;;;;;;136.20;71.92;;;;;;;10.34;90.71;99575.41;1712558;83;25703;-63
2022/10/28 04:11:08;;;;;;;102.70;48.48;;;;;;;10.33;90.08;99564.74;1717209;83;27404;-63
2022/10/28 04:13:34;;;;;;;43.68;27.37;;;;;;;10.31;90.11;99570.52;1717223;83;25579;-63
2022/10/28 04:16:00;;;;;;;47.13;33.08;;;;;;;10.31;90.45;99568.31;1717373;83;25467;-63
2022/10/28 04:18:27;;;;;;;69.30;26.33;;;;;;;10.29;90.58;99563.95;1717266;83;26426;-63
2022/10/28 04:20:53;;;;;;;145.60;41.25;;;;;;;10.28;90.55;99563.67;1717411;83;25407;-63
2022/10/28 04:23:19;;;;;;;398.45;105.60;;;;;;;10.28;90.53;99565.61;1717249;83;26909;-63
2022/10/28 04:25:45;;;;;;;134.12;37.93;;;;;;;10.29;90.27;99567.23;1717315;83;25666;-62
2022/10/28 04:28:12;;;;;;;185.55;50.23;;;;;;;10.27;90.30;99561.22;1717228;83;25512;-63
2022/10/28 04:30:38;;;;;;;260.08;68.92;;;;;;;10.27;90.06;99558.48;1716787;83;25781;-63
2022/10/28 04:33:04;;;;;;;248.40;69.07;;;;;;;10.27;89.95;99558.48;1717200;83;25606;-63
2022/10/28 04:35:30;;;;;;;199.27;54.70;;;;;;;10.28;89.84;99561.50;1717382;83;27443;-63
2022/10/28 04:37:56;;;;;;;111.28;34.20;;;;;;;10.26;89.56;99561.79;1716835;83;27212;-63
2022/10/28 04:40:22;;;;;;;70.80;23.87;;;;;;;10.25;89.49;99557.97;1726846;82;25668;-63
2022/10/28 04:42:48;;;;;;;123.58;35.15;;;;;;;10.23;89.55;99570.59;1731870;82;27895;-63
2022/10/28 04:45:15;;;;;;;147.82;42.08;;;;;;;10.20;89.28;99573.08;1732350;82;25594;-63
2022/10/28 04:47:41;;;;;;;169.53;46.98;;;;;;;10.17;89.06;99573.11;1731921;82;27412;-63
2022/10/28 04:50:09;;;;;;;79.50;26.10;;;;;;;10.17;89.29;99558.84;1731971;82;25603;-63
2022/10/28 04:52:35;;;;;;;76.22;24.67;;;;;;;10.17;89.44;99567.63;1732202;82;25451;-63
2022/10/28 04:55:01;;;;;;;18.02;9.90;;;;;;;10.10;89.49;99559.73;1731869;82;27833;-62
2022/10/28 04:57:27;;;;;;;14.47;8.18;;;;;;;10.06;90.10;99543.63;1732127;82;25618;-63
2022/10/28 04:59:53;;;;;;;14.83;8.18;;;;;;;10.01;90.98;99541.75;1732009;82;27545;-63
2022/10/28 05:02:22;;;;;;;16.82;9.55;;;;;;;10.00;91.52;99532.45;1731930;82;25437;-63
2022/10/28 05:04:48;;;;;;;14.58;8.80;;;;;;;10.02;91.38;99534.36;1732025;82;25558;-63
2022/10/28 05:07:14;;;;;;;21.93;11.10;;;;;;;10.04;91.66;99536.24;1731877;82;25776;-63
2022/10/28 05:09:40;;;;;;;16.70;9.88;;;;;;;10.07;91.41;99526.66;1731945;82;25613;-63
2022/10/28 05:12:07;;;;;;;30.40;13.08;;;;;;;10.12;91.14;99526.58;1732086;82;28183;-63
2022/10/28 05:14:33;;;;;;;35.95;14.10;;;;;;;10.15;90.95;99528.75;1731791;82;25622;-63
2022/10/28 05:16:59;;;;;;;41.13;17.67;;;;;;;10.16;91.20;99531.19;1731816;82;25646;-62
2022/10/28 05:19:25;;;;;;;36.23;15.63;;;;;;;10.19;90.59;99534.47;1732255;82;25797;-63
2022/10/28 05:21:52;;;;;;;26.73;12.03;;;;;;;10.21;90.50;99528.13;1731928;82;41548;-63
2022/10/28 05:24:18;;;;;;;21.20;10.72;;;;;;;10.21;90.82;99532.24;1732232;82;27295;-63
2022/10/28 05:26:44;;;;;;;17.42;10.35;;;;;;;10.21;91.05;99528.96;1731799;82;25690;-63
2022/10/28 05:29:11;;;;;;;34.65;15.38;;;;;;;10.20;90.96;99534.73;1732234;82;25597;-63
2022/10/28 05:31:37;;;;;;;30.20;14.93;;;;;;;10.20;90.76;99536.92;1732403;82;25755;-63
2022/10/28 05:34:03;;;;;;;54.55;21.97;;;;;;;10.21;90.56;99536.34;1731943;82;25662;-64
2022/10/28 05:36:29;;;;;;;56.70;22.45;;;;;;;10.22;90.40;99539.38;1732323;82;27390;-63
2022/10/28 05:38:55;;;;;;;57.13;22.87;;;;;;;10.19;90.25;99538.01;1732138;82;25483;-63
2022/10/28 05:41:21;;;;;;;29.57;14.10;;;;;;;10.18;90.49;99543.23;1718228;82;25477;-63
2022/10/28 05:43:47;;;;;;;45.80;18.57;;;;;;;10.14;90.79;99543.55;1716880;83;26024;-63
2022/10/28 05:46:13;;;;;;;33.10;15.70;;;;;;;10.09;90.57;99541.68;1717361;83;25441;-63
2022/10/28 05:48:39;;;;;;;23.18;12.60;;;;;;;10.07;90.96;99533.50;1716899;83;27483;-63
2022/10/28 05:51:05;;;;;;;20.32;11.10;;;;;;;10.07;90.99;99530.19;1716734;83;27170;-63
2022/10/28 05:53:32;;;;;;;28.92;14.50;;;;;;;10.08;90.96;99533.75;1717109;83;26256;-63
2022/10/28 05:55:58;;;;;;;19.32;11.53;;;;;;;10.09;90.71;99537.57;1716770;83;25769;-63
2022/10/28 05:58:24;;;;;;;24.40;13.70;;;;;;;10.09;90.85;99543.05;1716847;83;25649;-63
2022/10/28 06:00:50;;;;;;;16.95;11.20;;;;;;;10.12;90.72;99541.65;1716808;83;27441;-63
2022/10/28 06:03:17;;;;;;;16.05;9.75;;;;;;;10.13;90.88;99539.19;1716986;83;25441;-63
2022/10/28 06:05:44;;;;;;;26.57;14.45;;;;;;;10.15;91.13;99541.07;1716923;83;25448;-63
2022/10/28 06:08:12;;;;;;;23.60;14.10;;;;;;;10.19;90.81;99543.48;1716833;83;26896;-63
2022/10/28 06:10:40;;;;;;;22.60;13.25;;;;;;;10.23;90.57;99547.84;1717128;83;25528;-63
2022/10/28 06:13:07;;;;;;;31.52;16.73;;;;;;;10.25;90.68;99553.28;1717256;83;27331;-63
2022/10/28 06:15:34;;;;;;;26.30;15.48;;;;;;;10.29;90.52;99548.06;1717119;83;26487;-63
2022/10/28 06:18:00;;;;;;;17.87;11.35;;;;;;;10.34;90.25;99556.23;1716779;83;25605;-63
2022/10/28 06:20:26;;;;;;;18.60;11.05;;;;;;;10.37;90.37;99561.68;1716682;83;25762;-63
2022/10/28 06:22:56;;;;;;;15.28;9.85;;;;;;;10.41;90.23;99559.98;1716834;83;25673;-63
2022/10/28 06:25:24;;;;;;;16.57;9.90;;;;;;;10.44;90.31;99559.95;1716850;83;28290;-64
2022/10/28 06:27:56;;;;;;;22.20;12.90;;;;;;;10.45;90.25;99558.29;1717052;83;25645;-63
2022/10/28 06:30:24;;;;;;;15.78;10.55;;;;;;;10.49;90.08;99559.39;1717052;83;25898;-63
2022/10/28 06:32:50;;;;;;;16.57;10.63;;;;;;;10.52;90.16;99557.98;1717018;83;26563;-63
2022/10/28 06:35:16;;;;;;;15.55;11.00;;;;;;;10.53;89.99;99554.95;1705170;83;25622;-63
2022/10/28 06:37:42;;;;;;;13.78;8.83;;;;;;;10.56;89.99;99559.03;1712947;83;28311;-63
2022/10/28 06:40:10;;;;;;;12.63;8.23;;;;;;;10.59;90.15;99560.39;1745745;82;27130;-63
2022/10/28 06:42:36;;;;;;;16.05;10.53;;;;;;;10.58;90.33;99554.62;1747974;82;25617;-63
2022/10/28 06:45:03;;;;;;;20.12;10.85;;;;;;;10.62;90.13;99559.80;1747704;81;25782;-63
2022/10/28 06:47:30;;;;;;;15.88;10.38;;;;;;;10.65;90.12;99567.45;1748124;81;25405;-63
2022/10/28 06:49:56;;;;;;;18.55;11.63;;;;;;;10.71;89.97;99564.09;1743904;81;27402;-63
2022/10/28 06:52:22;;;;;;;14.93;10.45;;;;;;;10.73;89.98;99570.08;1747496;82;25835;-64
2022/10/28 06:54:48;;;;;;;18.57;11.38;;;;;;;10.76;89.99;99574.42;1748182;81;25585;-64
2022/10/28 06:57:14;;;;;;;13.93;9.23;;;;;;;10.79;89.99;99575.22;1747614;82;25419;-64
2022/10/28 06:59:41;;;;;;;15.65;10.85;;;;;;;10.86;89.96;99584.47;1748038;82;25631;-64
2022/10/28 07:02:11;;;;;;;15.75;10.50;;;;;;;10.92;89.87;99576.99;1741658;82;29538;-64
2022/10/28 07:04:37;;;;;;;16.82;9.58;;;;;;;10.99;89.67;99575.24;1745001;82;25668;-64
2022/10/28 07:07:04;;;;;;;15.23;10.50;;;;;;;11.00;89.16;99581.02;1747871;82;25685;-64
2022/10/28 07:09:30;;;;;;;15.30;10.88;;;;;;;11.04;89.18;99590.28;1747623;82;25813;-64
2022/10/28 07:12:00;;;;;;;17.40;11.50;;;;;;;11.08;89.08;99589.94;1747745;82;25685;-64
2022/10/28 07:14:26;;;;;;;18.63;12.60;;;;;;;11.17;89.19;99596.41;1748169;82;27432;-64
2022/10/28 07:16:52;;;;;;;18.50;11.73;;;;;;;11.26;89.18;99593.02;1747512;82;25431;-64
2022/10/28 07:19:19;;;;;;;18.92;12.10;;;;;;;11.35;88.81;99598.11;1747964;82;25681;-64
2022/10/28 07:21:47;;;;;;;21.33;13.62;;;;;;;11.44;88.41;99602.92;1747971;82;25770;-64
2022/10/28 07:24:13;;;;;;;20.02;12.73;;;;;;;11.53;88.22;99603.89;1747718;82;25629;-64
2022/10/28 07:26:40;;;;;;;21.68;12.75;;;;;;;11.58;88.02;99604.37;1747609;82;29514;-64
2022/10/28 07:29:06;;;;;;;20.35;13.20;;;;;;;11.57;87.88;99601.38;1747597;82;25628;-64
2022/10/28 07:31:32;;;;;;;22.67;14.70;;;;;;;11.58;87.79;99601.08;1747542;82;25629;-64
2022/10/28 07:33:58;;;;;;;23.20;15.03;;;;;;;11.59;87.82;99597.21;1747530;82;25809;-63
2022/10/28 07:36:25;;;;;;;24.12;14.55;;;;;;;11.63;87.82;99598.23;1747714;82;25466;-63
2022/10/28 07:38:52;;;;;;;16.73;9.23;;;;;;;11.62;87.36;99593.05;1747500;82;27519;-63
2022/10/28 07:41:21;;;;;;;25.25;15.60;;;;;;;11.64;87.21;99585.34;1742452;80;25620;-63
2022/10/28 07:43:48;;;;;;;20.27;12.65;;;;;;;11.69;87.56;99597.63;1739779;82;25427;-63
2022/10/28 07:46:16;;;;;;;16.52;10.32;;;;;;;11.75;87.39;99593.66;1743198;82;25714;-63
2022/10/28 07:48:43;;;;;;;24.55;13.90;;;;;;;11.75;87.13;99597.78;1745926;81;25396;-63
2022/10/28 07:51:13;;;;;;;18.95;11.97;;;;;;;11.73;87.59;99585.47;1745497;82;27371;-63
2022/10/28 07:53:40;;;;;;;24.05;14.15;;;;;;;11.75;87.55;99595.03;1736637;82;25743;-63
2022/10/28 07:56:12;;;;;;;22.58;13.80;;;;;;;11.83;87.96;99600.41;1715451;81;25662;-63
2022/10/28 07:58:38;;;;;;;22.22;14.07;;;;;;;11.79;87.71;99600.21;1735137;82;25568;-63
2022/10/28 08:01:07;;;;;;;24.85;14.83;;;;;;;11.82;87.90;99604.28;1744226;81;25681;-63
2022/10/28 08:03:34;;;;;;;26.27;15.68;;;;;;;11.82;87.72;99604.28;1745372;81;27401;-63
2022/10/28 08:06:11;;;;;;;24.52;15.95;;;;;;;11.95;88.40;99604.64;1737523;81;25702;-63
2022/10/28 08:08:38;;;;;;;20.43;11.93;;;;;;;12.03;87.77;99599.27;1713909;82;25418;-63
2022/10/28 08:11:21;;;;;;;24.27;14.90;;;;;;;11.99;87.29;99604.28;1699119;84;27038;-63
2022/10/28 08:13:48;;;;;;;28.17;15.45;;;;;;;11.96;87.41;99593.35;1698837;84;25538;-63
2022/10/28 08:16:15;;;;;;;26.10;15.28;;;;;;;12.01;87.60;99596.00;1698935;84;27262;-63
2022/10/28 08:18:42;;;;;;;25.90;16.32;;;;;;;11.99;87.76;99596.87;1699384;84;25598;-63
2022/10/28 08:21:11;;;;;;;24.95;15.50;;;;;;;12.04;88.05;99585.78;1698991;84;25516;-63
2022/10/28 08:23:37;;;;;;;24.45;15.95;;;;;;;12.14;87.87;99590.88;1698834;84;25752;-63
2022/10/28 08:26:05;;;;;;;24.92;15.50;;;;;;;12.14;88.05;99596.37;1699162;83;25622;-63
2022/10/28 08:28:31;;;;;;;23.95;14.13;;;;;;;12.25;87.86;99593.72;1698832;84;27423;-63
2022/10/28 08:31:02;;;;;;;23.25;15.78;;;;;;;12.33;87.45;99608.70;1698885;84;25733;-63
2022/10/28 08:33:31;;;;;;;23.65;15.68;;;;;;;12.45;88.08;99590.34;1699224;83;25740;-63
2022/10/28 08:35:58;;;;;;;23.60;15.20;;;;;;;12.54;87.60;99585.77;1698816;84;25731;-63
2022/10/28 08:38:24;;;;;;;18.77;12.03;;;;;;;12.63;86.89;99591.38;1700778;82;25441;-63
2022/10/28 08:41:25;;;;;;;15.32;10.85;;;;;;;12.72;87.07;99585.97;1738374;81;27428;-63
2022/10/28 08:44:17;;;;;;;17.32;11.38;;;;;;;12.80;86.69;99585.82;1765069;81;25703;-63
2022/10/28 08:47:32;;;;;;;21.17;13.48;;;;;;;12.80;86.88;99571.52;1764909;81;25482;-63
2022/10/28 08:50:04;;;;;;;17.45;11.63;;;;;;;12.98;87.28;99582.70;1691557;83;26490;-63
2022/10/28 08:52:53;;;;;;;19.95;12.63;;;;;;;13.15;87.33;99577.95;1696089;84;25724;-63
2022/10/28 08:55:42;;;;;;;18.80;11.88;;;;;;;13.35;87.07;99584.13;1697352;84;27655;-63
2022/10/28 08:58:17;;;;;;;16.42;10.88;;;;;;;13.54;86.20;99589.52;1656695;85;25823;-63
2022/10/28 09:00:53;;;;;;;12.90;9.78;;;;;;;13.74;86.18;99582.45;1686106;84;25738;-63
2022/10/28 09:03:34;;;;;;;12.73;9.08;;;;;;;13.96;85.23;99587.14;1690746;84;25781;-63
2022/10/28 09:06:04;;;;;;;11.08;7.83;;;;;;;14.21;84.10;99585.42;1676462;85;25745;-63
2022/10/28 09:08:35;;;;;;;14.10;8.45;;;;;;;14.42;83.04;99585.70;1684961;85;27494;-63
2022/10/28 09:11:16;;;;;;;12.13;8.10;;;;;;;14.64;83.27;99588.98;1714877;83;25528;-63
2022/10/28 09:14:08;;;;;;;12.58;8.65;;;;;;;14.89;83.08;99582.53;1690637;84;25857;-63
2022/10/28 09:16:48;;;;;;;12.28;7.50;;;;;;;15.17;81.98;99582.84;1707500;84;25764;-64
2022/10/28 09:19:42;;;;;;;10.48;6.92;;;;;;;15.44;80.53;99586.44;1707549;84;25791;-63
2022/10/28 09:22:27;;;;;;;10.32;7.53;;;;;;;15.83;79.89;99578.30;1707438;84;27504;-63
2022/10/28 09:25:11;;;;;;;8.95;5.72;;;;;;;16.22;77.75;99578.44;1705684;84;27203;-64
2022/10/28 09:28:07;;;;;;;8.25;5.92;;;;;;;16.35;76.02;99582.13;1763777;80;25645;-63
2022/10/28 09:31:01;;;;;;;10.23;6.40;;;;;;;16.55;76.36;99579.22;1758816;81;25767;-64
2022/10/28 09:33:41;;;;;;;8.55;6.42;;;;;;;16.91;75.77;99570.19;1764995;81;25608;-63
2022/10/28 09:36:12;;;;;;;10.78;7.10;;;;;;;17.12;74.29;99569.99;1762552;81;27535;-64
2022/10/28 09:38:39;;;;;;;15.75;7.60;;;;;;;17.25;73.67;99575.88;1748075;81;25617;-64
2022/10/28 09:41:26;;;;;;;9.85;6.33;;;;;;;17.47;74.79;99574.50;1746437;82;25412;-63
2022/10/28 09:44:00;;;;;;;7.22;5.80;;;;;;;17.65;71.05;99573.78;1741611;82;26671;-64
2022/10/28 09:46:29;;;;;;;6.75;5.15;;;;;;;18.03;72.53;99567.80;1740591;82;25606;-64
2022/10/28 09:49:07;;;;;;;7.22;5.28;;;;;;;18.37;70.08;99560.28;1740565;82;28008;-64
2022/10/28 09:51:54;;;;;;;10.10;5.15;;;;;;;18.74;69.77;99558.69;1741754;82;26271;-64
2022/10/28 09:54:29;;;;;;;5.70;4.67;;;;;;;19.23;69.40;99559.22;1742319;82;25693;-63
2022/10/28 09:56:55;;;;;;;6.42;5.00;;;;;;;19.43;66.58;99547.72;1742816;82;25689;-64
2022/10/28 09:59:22;;;;;;;6.40;5.40;;;;;;;19.64;65.86;99555.64;1742627;82;25443;-64
2022/10/28 10:01:48;;;;;;;6.78;5.60;;;;;;;19.89;65.60;99561.11;1742538;82;27455;-63
2022/10/28 10:04:21;;;;;;;5.97;4.70;;;;;;;20.21;63.67;99563.17;1742466;82;25669;-63
2022/10/28 10:07:10;;;;;;;6.12;5.25;;;;;;;20.40;61.47;99563.84;1742226;82;25483;-62
2022/10/28 10:09:39;;;;;;;7.28;5.45;;;;;;;20.49;62.30;99552.55;1742022;82;25819;-62
2022/10/28 10:12:09;;;;;;;6.97;4.55;;;;;;;20.70;61.62;99553.66;1743043;82;25622;-62
2022/10/28 10:14:43;;;;;;;5.92;4.37;;;;;;;21.03;61.81;99553.04;1741863;82;27560;-62
2022/10/28 10:17:27;;;;;;;8.13;4.90;;;;;;;21.22;60.05;99561.22;1741845;82;27236;-62
2022/10/28 10:20:13;;;;;;;5.30;4.22;;;;;;;21.58;59.23;99558.41;1741852;82;25582;-62
2022/10/28 10:22:46;;;;;;;5.25;4.22;;;;;;;21.68;57.22;99553.63;1678949;85;25833;-62
2022/10/28 10:25:24;;;;;;;6.17;4.47;;;;;;;21.70;57.95;99552.66;1678813;85;25742;-62
2022/10/28 10:28:02;;;;;;;7.35;4.78;;;;;;;21.88;58.35;99555.03;1679107;85;28269;-62
2022/10/28 10:30:51;;;;;;;5.60;4.50;;;;;;;22.19;55.79;99560.99;1678959;85;25919;-62
2022/10/28 10:33:28;;;;;;;5.50;4.10;;;;;;;22.30;56.42;99550.59;1678705;85;25707;-62
2022/10/28 10:36:05;;;;;;;5.75;4.42;;;;;;;22.50;55.41;99552.74;1679229;85;25854;-62
2022/10/28 10:38:34;;;;;;;4.67;4.17;;;;;;;22.64;55.96;99552.20;1678936;85;25782;-62
2022/10/28 10:41:00;;;;;;;5.95;4.90;;;;;;;22.66;54.12;99560.21;1676322;84;27619;-62
2022/10/28 10:43:31;;;;;;;9.58;5.22;;;;;;;22.77;54.75;99568.77;1657239;86;25653;-62
2022/10/28 10:46:12;;;;;;;6.65;4.42;;;;;;;22.48;54.83;99559.28;1657550;86;25554;-62
2022/10/28 10:48:39;;;;;;;6.12;4.60;;;;;;;22.17;55.33;99565.34;1657616;86;25856;-62
2022/10/28 10:51:24;;;;;;;7.33;5.30;;;;;;;21.71;54.08;99562.66;1657343;86;25549;-62
2022/10/28 10:53:59;;;;;;;7.28;5.70;;;;;;;21.24;55.72;99573.61;1657028;86;27382;-61
2022/10/28 10:56:29;;;;;;;7.78;5.12;;;;;;;20.91;56.77;99566.50;1654836;85;25886;-62
2022/10/28 10:59:02;;;;;;;5.92;4.17;;;;;;;20.56;56.82;99561.08;1671768;82;25758;-62
2022/10/28 11:01:36;;;;;;;5.75;3.87;;;;;;;20.29;57.58;99557.42;1747551;82;25685;-61
2022/10/28 11:04:10;;;;;;;6.50;4.22;;;;;;;20.04;57.70;99553.99;1747362;82;25583;-61
2022/10/28 11:06:40;;;;;;;5.22;4.50;;;;;;;19.87;58.41;99548.95;1746235;82;27384;-62
2022/10/28 11:09:35;;;;;;;5.33;4.33;;;;;;;19.79;59.25;99547.12;1747795;82;25601;-62
2022/10/28 11:12:17;;;;;;;7.05;5.20;;;;;;;19.65;59.07;99540.00;1747338;82;25634;-62
2022/10/28 11:14:52;;;;;;;7.75;5.55;;;;;;;19.67;60.04;99543.81;1747387;82;25773;-62
2022/10/28 11:17:31;;;;;;;10.08;5.42;;;;;;;19.63;60.01;99542.92;1733331;82;25515;-62
2022/10/28 11:20:24;;;;;;;8.50;5.25;;;;;;;19.71;60.79;99543.33;1747758;82;27460;-62
2022/10/28 11:23:14;;;;;;;8.18;5.75;;;;;;;19.48;60.97;99538.32;1747859;82;25472;-63
2022/10/28 11:25:48;;;;;;;7.70;5.42;;;;;;;19.24;61.28;99543.37;1735671;82;25613;-63
2022/10/28 11:28:26;;;;;;;8.15;4.85;;;;;;;19.14;62.06;99541.30;1747758;82;25747;-63
2022/10/28 11:31:16;;;;;;;6.83;4.53;;;;;;;18.99;61.99;99545.58;1747029;82;25613;-63
2022/10/28 11:34:23;;;;;;;6.60;4.65;;;;;;;18.98;62.15;99545.94;1748083;82;27312;-63
2022/10/28 11:37:13;;;;;;;9.15;5.15;;;;;;;19.05;61.63;99540.02;1747712;82;25636;-63
2022/10/28 11:40:21;;;;;;;6.75;4.60;;;;;;;19.03;62.46;99529.04;1747996;82;25630;-63
2022/10/28 11:43:17;;;;;;;5.50;4.37;;;;;;;18.76;62.61;99531.36;1707922;83;25679;-62
2022/10/28 11:45:53;;;;;;;9.20;4.58;;;;;;;18.53;63.21;99532.65;1658875;86;25814;-62